Time;durP1;ratioP1;P1;durP2;ratioP2;P2;SDS_P1;SDS_P2;PMS_P1;PMS_P2;Temp;Humidity;BMP_temperature;BMP_pressure;BME280_temperature;BME280_humidity;BME280_pressure;Samples;Min_cycle;Max_cycle;Signal;HPM_P1;HPM_P2
2022/10/31 00:00:52;;;;;;;;;;;13.90;99.90;;;;;;5020963;28;20007;-75
2022/10/31 00:03:17;;;;;;;;;;;13.90;99.90;;;;;;5040633;28;20447;-75
2022/10/31 00:05:44;;;;;;;;;;;13.80;99.90;;;;;;5023005;28;19969;-75
2022/10/31 00:08:10;;;;;;;;;;;13.90;99.90;;;;;;5040566;28;19924;-75
2022/10/31 00:10:39;;;;;;;;;;;13.90;99.90;;;;;;5020839;28;20460;-75
2022/10/31 00:13:04;;;;;;;;;;;13.90;99.90;;;;;;5041081;28;19917;-76
2022/10/31 00:15:32;;;;;;;;;;;13.90;99.90;;;;;;5039296;28;20026;-76
2022/10/31 00:17:58;;;;;;;;;;;13.90;99.90;;;;;;5019760;28;19963;-76
2022/10/31 00:20:23;;;;;;;;;;;13.80;99.90;;;;;;5022036;28;19921;-76
2022/10/31 00:22:49;;;;;;;;;;;13.80;99.90;;;;;;5039955;28;19971;-75
2022/10/31 00:25:14;;;;;;;;;;;13.80;99.90;;;;;;5039238;28;19925;-76
2022/10/31 00:27:40;;;;;;;;;;;13.80;99.90;;;;;;5036935;28;19920;-75
2022/10/31 00:30:05;;;;;;;;;;;13.80;99.90;;;;;;5038808;28;19921;-76
2022/10/31 00:32:31;;;;;;;;;;;13.80;99.90;;;;;;5040173;28;19994;-76
2022/10/31 00:34:57;;;;;;;;;;;13.90;99.90;;;;;;5022445;28;19916;-76
2022/10/31 00:37:22;;;;;;;;;;;13.90;99.90;;;;;;5040323;28;19921;-76
2022/10/31 00:39:49;;;;;;;;;;;13.80;99.90;;;;;;5040577;28;19917;-75
2022/10/31 00:42:15;;;;;;;;;;;13.70;99.90;;;;;;5019729;28;19920;-76
2022/10/31 00:44:40;;;;;;;;;;;13.70;99.90;;;;;;5040105;28;19932;-75
2022/10/31 00:47:05;;;;;;;;;;;13.60;99.90;;;;;;5040000;28;19948;-76
2022/10/31 00:49:31;;;;;;;;;;;13.50;99.90;;;;;;5037204;28;19920;-75
2022/10/31 00:51:56;;;;;;;;;;;13.40;99.90;;;;;;5040225;28;20364;-75
2022/10/31 00:54:22;;;;;;;;;;;13.40;99.90;;;;;;5040510;28;20478;-76
2022/10/31 00:56:47;;;;;;;;;;;13.30;99.90;;;;;;5040164;28;19916;-74
2022/10/31 00:59:13;;;;;;;;;;;13.40;99.90;;;;;;5023144;28;19921;-77
2022/10/31 01:01:38;;;;;;;;;;;13.50;99.90;;;;;;5022562;28;19924;-75
2022/10/31 01:04:04;;;;;;;;;;;13.60;99.90;;;;;;5040049;28;20466;-76
2022/10/31 01:06:29;;;;;;;;;;;13.60;99.90;;;;;;5038541;28;19979;-76
2022/10/31 01:08:55;;;;;;;;;;;13.50;99.90;;;;;;5041034;28;19927;-76
2022/10/31 01:11:22;;;;;;;;;;;13.40;99.90;;;;;;5040312;28;20416;-76
2022/10/31 01:13:49;;;;;;;;;;;13.30;99.90;;;;;;5021982;28;20269;-77
2022/10/31 01:16:16;;;;;;;;;;;13.30;99.90;;;;;;5038253;28;20455;-76
2022/10/31 01:18:41;;;;;;;;;;;13.20;99.90;;;;;;5040578;28;19917;-76
2022/10/31 01:21:09;;;;;;;;;;;13.10;99.90;;;;;;5040975;28;19923;-75
2022/10/31 01:23:34;;;;;;;;;;;13.10;99.90;;;;;;5039968;28;20392;-75
2022/10/31 01:26:04;;;;;;;;;;;13.10;99.90;;;;;;5036130;28;19931;-76
2022/10/31 01:28:30;;;;;;;;;;;13.10;99.90;;;;;;5038250;28;19917;-76
2022/10/31 01:30:59;;;;;;;;;;;13.10;99.90;;;;;;5020004;28;20198;-76
2022/10/31 01:33:24;;;;;;;;;;;13.10;99.90;;;;;;5038872;28;19967;-76
2022/10/31 01:35:50;;;;;;;;;;;13.00;99.90;;;;;;5038556;28;20345;-76
2022/10/31 01:38:15;;;;;;;;;;;13.00;99.90;;;;;;5038545;28;19924;-76
2022/10/31 01:40:41;;;;;;;;;;;12.90;99.90;;;;;;5037350;28;20226;-76
2022/10/31 01:43:11;;;;;;;;;;;12.80;99.90;;;;;;5037482;28;19940;-75
2022/10/31 01:45:36;;;;;;;;;;;12.80;99.90;;;;;;5039460;28;19928;-75
2022/10/31 01:48:02;;;;;;;;;;;12.70;99.90;;;;;;5039491;28;20327;-75
2022/10/31 01:50:34;;;;;;;;;;;12.70;99.90;;;;;;5034259;28;21321;-75
2022/10/31 01:53:01;;;;;;;;;;;12.60;99.90;;;;;;5037958;28;20012;-76
2022/10/31 01:55:29;;;;;;;;;;;12.70;99.90;;;;;;5036232;28;19924;-75
2022/10/31 01:57:58;;;;;;;;;;;12.70;99.90;;;;;;5039684;28;19917;-76
2022/10/31 02:00:23;;;;;;;;;;;12.70;99.90;;;;;;5039162;28;21641;-76
2022/10/31 02:02:49;;;;;;;;;;;12.70;99.90;;;;;;5039725;28;20007;-75
2022/10/31 02:05:17;;;;;;;;;;;12.70;99.90;;;;;;5036778;28;19929;-76
2022/10/31 02:07:45;;;;;;;;;;;12.70;99.90;;;;;;5021469;28;20076;-75
2022/10/31 02:10:10;;;;;;;;;;;12.60;99.90;;;;;;5019959;28;20264;-76
2022/10/31 02:12:37;;;;;;;;;;;12.60;99.90;;;;;;5039133;28;19931;-76
2022/10/31 02:15:03;;;;;;;;;;;12.50;99.90;;;;;;5038079;28;20034;-76
2022/10/31 02:17:30;;;;;;;;;;;12.60;99.90;;;;;;5037216;28;19990;-76
2022/10/31 02:20:01;;;;;;;;;;;12.50;99.90;;;;;;5017841;28;19924;-75
2022/10/31 02:22:29;;;;;;;;;;;12.50;99.90;;;;;;5038695;28;19928;-76
2022/10/31 02:25:21;;;;;;;;;;;12.50;99.90;;;;;;5039226;28;19947;-76
2022/10/31 02:27:47;;;;;;;;;;;12.50;99.90;;;;;;5038003;28;19969;-75
2022/10/31 02:30:22;;;;;;;;;;;12.50;99.90;;;;;;5038116;28;19947;-76
2022/10/31 02:32:54;;;;;;;;;;;12.50;99.90;;;;;;5016108;28;19970;-76
2022/10/31 02:35:27;;;;;;;;;;;12.60;99.90;;;;;;5034960;28;19916;-75
2022/10/31 02:37:57;;;;;;;;;;;12.60;99.90;;;;;;5034295;28;19932;-76
2022/10/31 02:40:25;;;;;;;;;;;12.70;99.90;;;;;;5036596;28;19939;-76
2022/10/31 02:42:56;;;;;;;;;;;12.70;99.90;;;;;;5037398;28;19978;-76
2022/10/31 02:45:26;;;;;;;;;;;12.80;99.90;;;;;;5034576;28;20338;-76
2022/10/31 02:47:53;;;;;;;;;;;12.80;99.90;;;;;;5035442;28;19921;-75
2022/10/31 02:50:23;;;;;;;;;;;12.80;99.90;;;;;;5030252;28;20346;-75
2022/10/31 02:52:52;;;;;;;;;;;12.80;99.90;;;;;;5039563;28;19927;-76
2022/10/31 02:55:24;;;;;;;;;;;12.80;99.90;;;;;;5022791;28;19916;-76
2022/10/31 02:57:51;;;;;;;;;;;12.80;99.90;;;;;;5041408;28;19924;-76
2022/10/31 03:00:16;;;;;;;;;;;12.80;99.90;;;;;;5036878;28;19921;-76
2022/10/31 03:03:00;;;;;;;;;;;12.80;99.90;;;;;;5041810;28;20354;-77
2022/10/31 03:05:31;;;;;;;;;;;12.70;99.90;;;;;;5022174;28;19983;-76
2022/10/31 03:07:56;;;;;;;;;;;12.70;99.90;;;;;;5041130;28;19924;-75
2022/10/31 03:10:36;;;;;;;;;;;12.70;99.90;;;;;;5020051;28;19925;-77
2022/10/31 03:13:22;;;;;;;;;;;12.70;99.90;;;;;;5042974;28;20414;-76
2022/10/31 03:15:51;;;;;;;;;;;12.70;99.90;;;;;;4995922;28;20018;-76
2022/10/31 03:18:21;;;;;;;;;;;12.70;99.90;;;;;;5022969;28;19986;-76
2022/10/31 03:20:54;;;;;;;;;;;12.70;99.90;;;;;;5034196;28;19921;-76
2022/10/31 03:23:21;;;;;;;;;;;12.70;99.90;;;;;;5041530;28;20236;-76
2022/10/31 03:25:48;;;;;;;;;;;12.80;99.90;;;;;;5041220;28;20360;-75
2022/10/31 03:28:15;;;;;;;;;;;12.70;99.90;;;;;;5039248;28;19924;-76
2022/10/31 03:30:42;;;;;;;;;;;12.80;99.90;;;;;;5040654;28;19936;-76
2022/10/31 03:33:10;;;;;;;;;;;12.80;99.90;;;;;;5040957;28;19960;-76
2022/10/31 03:35:36;;;;;;;;;;;12.70;99.90;;;;;;5038978;28;20395;-76
2022/10/31 03:38:02;;;;;;;;;;;12.70;99.90;;;;;;5040870;28;20007;-76
2022/10/31 03:40:29;;;;;;;;;;;12.60;99.90;;;;;;5039073;28;20501;-76
2022/10/31 03:42:57;;;;;;;;;;;12.60;99.90;;;;;;5041355;28;19916;-76
2022/10/31 03:45:28;;;;;;;;;;;12.50;99.90;;;;;;5037805;28;19976;-76
2022/10/31 03:47:55;;;;;;;;;;;12.50;99.90;;;;;;5037413;28;20532;-75
2022/10/31 03:50:21;;;;;;;;;;;12.40;99.90;;;;;;5039452;28;19924;-76
2022/10/31 03:52:55;;;;;;;;;;;12.50;99.90;;;;;;5040792;28;19917;-76
2022/10/31 03:55:24;;;;;;;;;;;12.50;99.90;;;;;;5033407;28;19921;-76
2022/10/31 03:57:58;;;;;;;;;;;12.50;99.90;;;;;;5040237;28;19932;-75
2022/10/31 04:00:24;;;;;;;;;;;12.50;99.90;;;;;;5040435;28;20007;-76
2022/10/31 04:03:03;;;;;;;;;;;12.50;99.90;;;;;;5040494;28;19921;-77
2022/10/31 04:05:29;;;;;;;;;;;12.50;99.90;;;;;;5040584;28;19925;-76
2022/10/31 04:07:55;;;;;;;;;;;12.60;99.90;;;;;;5041011;28;20011;-76
2022/10/31 04:10:22;;;;;;;;;;;12.60;99.90;;;;;;5041832;28;19931;-75
2022/10/31 04:12:50;;;;;;;;;;;12.70;99.90;;;;;;5040931;28;19920;-76
2022/10/31 04:15:15;;;;;;;;;;;12.70;99.90;;;;;;5038861;28;20363;-76
2022/10/31 04:17:42;;;;;;;;;;;12.80;99.90;;;;;;5041477;28;19913;-76
2022/10/31 04:20:08;;;;;;;;;;;12.80;99.90;;;;;;5037584;28;20372;-76
2022/10/31 04:22:33;;;;;;;;;;;12.90;99.90;;;;;;5040318;28;19928;-76
2022/10/31 04:24:59;;;;;;;;;;;13.00;99.90;;;;;;5040343;28;20372;-76
2022/10/31 04:27:25;;;;;;;;;;;13.00;99.90;;;;;;5040283;28;19917;-76
2022/10/31 04:29:51;;;;;;;;;;;12.90;99.90;;;;;;5022294;28;19916;-76
2022/10/31 04:32:17;;;;;;;;;;;12.90;99.90;;;;;;5020845;28;20500;-75
2022/10/31 04:34:42;;;;;;;;;;;12.80;99.90;;;;;;5040285;28;19960;-76
2022/10/31 04:37:08;;;;;;;;;;;12.80;99.90;;;;;;5041097;28;19931;-76
2022/10/31 04:39:33;;;;;;;;;;;12.80;99.90;;;;;;5040249;28;20379;-76
2022/10/31 04:41:59;;;;;;;;;;;12.70;99.90;;;;;;5040337;28;19944;-76
2022/10/31 04:44:24;;;;;;;;;;;12.60;99.90;;;;;;5038874;28;19917;-76
2022/10/31 04:46:50;;;;;;;;;;;12.70;99.90;;;;;;5037323;28;19963;-76
2022/10/31 04:49:15;;;;;;;;;;;12.60;99.90;;;;;;5037990;28;19916;-75
2022/10/31 04:51:41;;;;;;;;;;;12.60;99.90;;;;;;5037095;28;20019;-76
2022/10/31 04:54:06;;;;;;;;;;;12.50;99.90;;;;;;5036944;28;20027;-76
2022/10/31 04:56:32;;;;;;;;;;;12.50;99.90;;;;;;5039486;28;19952;-75
2022/10/31 04:58:57;;;;;;;;;;;12.50;99.90;;;;;;5039467;28;20106;-75
2022/10/31 05:01:23;;;;;;;;;;;12.50;99.90;;;;;;5040626;28;20018;-75
2022/10/31 05:03:48;;;;;;;;;;;12.50;99.90;;;;;;5022992;28;20384;-76
2022/10/31 05:06:16;;;;;;;;;;;12.50;99.90;;;;;;5021677;28;19969;-75
2022/10/31 05:08:41;;;;;;;;;;;12.50;99.90;;;;;;5039861;28;19970;-75
2022/10/31 05:11:07;;;;;;;;;;;12.50;99.90;;;;;;5020547;28;19916;-76
2022/10/31 05:13:32;;;;;;;;;;;12.50;99.90;;;;;;5038904;28;20332;-76
2022/10/31 05:15:58;;;;;;;;;;;12.50;99.90;;;;;;5022076;28;19917;-76
2022/10/31 05:18:23;;;;;;;;;;;12.40;99.90;;;;;;5040224;28;19920;-76
2022/10/31 05:20:49;;;;;;;;;;;12.50;99.90;;;;;;5021453;28;20787;-75
2022/10/31 05:23:14;;;;;;;;;;;12.40;99.90;;;;;;5039292;28;20645;-76
2022/10/31 05:25:40;;;;;;;;;;;12.40;99.90;;;;;;5021878;28;19925;-75
2022/10/31 05:28:06;;;;;;;;;;;12.40;99.90;;;;;;5039816;28;20336;-76
2022/10/31 05:30:32;;;;;;;;;;;12.40;99.90;;;;;;5038669;28;19917;-76
2022/10/31 05:32:57;;;;;;;;;;;12.30;99.90;;;;;;5038308;28;19964;-76
2022/10/31 05:35:24;;;;;;;;;;;12.30;99.90;;;;;;5038732;28;19917;-76
2022/10/31 05:37:49;;;;;;;;;;;12.20;99.90;;;;;;5038689;28;19917;-76
2022/10/31 05:40:16;;;;;;;;;;;12.20;99.90;;;;;;5020642;28;19917;-76
2022/10/31 05:42:42;;;;;;;;;;;12.20;99.90;;;;;;5038904;28;19951;-76
2022/10/31 05:45:09;;;;;;;;;;;12.10;99.90;;;;;;5037863;28;19931;-76
2022/10/31 05:47:34;;;;;;;;;;;12.20;99.90;;;;;;5039487;28;19921;-76
2022/10/31 05:50:00;;;;;;;;;;;12.20;99.90;;;;;;5038605;28;19921;-76
2022/10/31 05:52:25;;;;;;;;;;;12.30;99.90;;;;;;5035897;28;20144;-74
2022/10/31 05:54:50;;;;;;;;;;;12.30;99.90;;;;;;5039165;28;19974;-74
2022/10/31 05:57:16;;;;;;;;;;;12.20;99.90;;;;;;5039002;28;19917;-76
2022/10/31 05:59:41;;;;;;;;;;;12.20;99.90;;;;;;5039379;28;20370;-76
2022/10/31 06:02:07;;;;;;;;;;;12.10;99.90;;;;;;5038117;28;19916;-76
2022/10/31 06:04:32;;;;;;;;;;;12.00;99.90;;;;;;5038315;28;20019;-76
2022/10/31 06:06:58;;;;;;;;;;;12.00;99.90;;;;;;5037514;28;19931;-76
2022/10/31 06:09:23;;;;;;;;;;;11.90;99.90;;;;;;5039571;28;20368;-76
2022/10/31 06:11:49;;;;;;;;;;;11.90;99.90;;;;;;5039108;28;20029;-76
2022/10/31 06:14:14;;;;;;;;;;;11.90;99.90;;;;;;5038815;28;19979;-76
2022/10/31 06:16:40;;;;;;;;;;;11.80;99.90;;;;;;5039033;28;20020;-76
2022/10/31 06:19:05;;;;;;;;;;;11.80;99.90;;;;;;5039053;28;20003;-76
2022/10/31 06:21:31;;;;;;;;;;;11.70;99.90;;;;;;5037452;28;19924;-75
2022/10/31 06:23:56;;;;;;;;;;;11.70;99.90;;;;;;5038721;28;20021;-76
2022/10/31 06:26:22;;;;;;;;;;;11.70;99.90;;;;;;5038855;28;22080;-76
2022/10/31 06:28:47;;;;;;;;;;;11.70;99.90;;;;;;5040451;28;20490;-76
2022/10/31 06:31:13;;;;;;;;;;;11.70;99.90;;;;;;5043075;28;19928;-76
2022/10/31 06:33:40;;;;;;;;;;;11.70;99.90;;;;;;5023937;28;19923;-76
2022/10/31 06:36:06;;;;;;;;;;;11.60;99.90;;;;;;5024940;28;20291;-76
2022/10/31 06:38:31;;;;;;;;;;;11.50;99.90;;;;;;5026936;28;19971;-76
2022/10/31 06:40:57;;;;;;;;;;;11.60;99.90;;;;;;5040555;28;19921;-76
2022/10/31 06:43:22;;;;;;;;;;;11.50;99.90;;;;;;5042626;28;19923;-76
2022/10/31 06:45:48;;;;;;;;;;;11.50;99.90;;;;;;5042837;28;20093;-76
2022/10/31 06:48:13;;;;;;;;;;;11.60;99.90;;;;;;5039575;28;20947;-76
2022/10/31 06:50:39;;;;;;;;;;;11.50;99.90;;;;;;5041686;28;19925;-76
2022/10/31 06:53:04;;;;;;;;;;;11.50;99.90;;;;;;5022221;28;19974;-76
2022/10/31 06:55:30;;;;;;;;;;;11.50;99.90;;;;;;5042502;28;20032;-76
2022/10/31 06:57:57;;;;;;;;;;;11.40;99.90;;;;;;5023253;28;20006;-75
2022/10/31 07:00:23;;;;;;;;;;;11.40;99.90;;;;;;5023382;28;20078;-76
2022/10/31 07:02:59;;;;;;;;;;;11.40;99.90;;;;;;5042211;28;20023;-76
2022/10/31 07:05:24;;;;;;;;;;;11.50;99.90;;;;;;5022251;28;19963;-76
2022/10/31 07:07:57;;;;;;;;;;;11.60;99.90;;;;;;5023157;28;20273;-76
2022/10/31 07:10:24;;;;;;;;;;;11.70;99.90;;;;;;5040679;28;20411;-76
2022/10/31 07:12:53;;;;;;;;;;;11.80;99.90;;;;;;5042241;28;19917;-76
2022/10/31 07:15:19;;;;;;;;;;;11.90;99.90;;;;;;5019530;28;20027;-75
2022/10/31 07:17:44;;;;;;;;;;;12.00;99.90;;;;;;5041515;28;20023;-76
2022/10/31 07:20:10;;;;;;;;;;;12.10;99.90;;;;;;5020314;28;19924;-76
2022/10/31 07:22:36;;;;;;;;;;;12.20;99.90;;;;;;5038037;28;19924;-76
2022/10/31 07:25:02;;;;;;;;;;;12.20;99.90;;;;;;5039285;28;19928;-76
2022/10/31 07:27:28;;;;;;;;;;;12.30;99.90;;;;;;5035843;28;19920;-76
2022/10/31 07:29:53;;;;;;;;;;;12.40;99.90;;;;;;5040410;28;19921;-76
2022/10/31 07:32:19;;;;;;;;;;;12.50;99.90;;;;;;5037397;28;19962;-77
2022/10/31 07:34:44;;;;;;;;;;;12.70;99.90;;;;;;5034893;28;20299;-76
2022/10/31 07:37:10;;;;;;;;;;;12.80;99.90;;;;;;5042621;28;19924;-77
2022/10/31 07:39:35;;;;;;;;;;;12.80;99.90;;;;;;5040520;28;19917;-76
2022/10/31 07:42:01;;;;;;;;;;;12.90;99.90;;;;;;5037254;28;20015;-76
2022/10/31 07:44:26;;;;;;;;;;;12.90;99.90;;;;;;5036232;28;19968;-76
2022/10/31 07:46:52;;;;;;;;;;;13.00;99.90;;;;;;5039746;28;20020;-78
2022/10/31 07:49:17;;;;;;;;;;;13.00;99.90;;;;;;5022024;28;19952;-78
2022/10/31 07:51:43;;;;;;;;;;;13.10;99.90;;;;;;5040101;28;19951;-78
2022/10/31 07:54:08;;;;;;;;;;;13.20;99.90;;;;;;5040375;28;19916;-76
2022/10/31 07:56:34;;;;;;;;;;;13.30;99.90;;;;;;5045091;28;20387;-76
2022/10/31 07:58:59;;;;;;;;;;;13.40;99.90;;;;;;5043913;28;19917;-76
2022/10/31 08:01:25;;;;;;;;;;;13.50;99.90;;;;;;5041343;28;19966;-77
2022/10/31 08:03:50;;;;;;;;;;;13.70;99.90;;;;;;5041831;28;20292;-83
2022/10/31 08:06:16;;;;;;;;;;;14.10;99.90;;;;;;5022909;28;19935;-83
2022/10/31 08:08:41;;;;;;;;;;;14.30;99.90;;;;;;5041349;28;19916;-77
2022/10/31 08:11:07;;;;;;;;;;;14.70;99.90;;;;;;5038222;28;19924;-77
2022/10/31 08:13:32;;;;;;;;;;;14.50;99.90;;;;;;5017464;28;20035;-76
2022/10/31 08:16:03;;;;;;;;;;;14.40;99.90;;;;;;5034336;28;20410;-77
2022/10/31 08:18:29;;;;;;;;;;;14.60;99.90;;;;;;5034977;28;20007;-77
2022/10/31 08:20:54;;;;;;;;;;;16.20;99.90;;;;;;5034885;28;20161;-78
2022/10/31 08:23:20;;;;;;;;;;;17.40;99.90;;;;;;5017919;28;19916;-77
2022/10/31 08:25:47;;;;;;;;;;;18.10;99.90;;;;;;5032284;28;20490;-78
2022/10/31 08:28:12;;;;;;;;;;;18.90;99.90;;;;;;5031024;28;20088;-78
2022/10/31 08:30:38;;;;;;;;;;;19.50;99.90;;;;;;5030312;28;19927;-77
2022/10/31 08:33:05;;;;;;;;;;;19.50;99.90;;;;;;5032150;28;20303;-78
2022/10/31 08:35:31;;;;;;;;;;;19.20;99.90;;;;;;5034290;28;20593;-78
2022/10/31 08:37:57;;;;;;;;;;;18.80;99.90;;;;;;5014543;28;20444;-77
2022/10/31 08:40:23;;;;;;;;;;;18.20;99.90;;;;;;5026058;28;20016;-78
2022/10/31 08:42:59;;;;;;;;;;;18.10;99.90;;;;;;5038028;28;19964;-77
2022/10/31 08:45:25;;;;;;;;;;;18.10;99.90;;;;;;5032805;28;20005;-78
2022/10/31 08:47:50;;;;;;;;;;;18.10;99.90;;;;;;5035986;28;20319;-78
2022/10/31 08:50:16;;;;;;;;;;;18.10;99.90;;;;;;5016021;28;19925;-78
2022/10/31 08:52:41;;;;;;;;;;;18.50;99.90;;;;;;5036300;28;19916;-80
2022/10/31 08:55:07;;;;;;;;;;;18.70;99.90;;;;;;5039358;28;19913;-79
2022/10/31 08:57:32;;;;;;;;;;;19.20;99.90;;;;;;5021640;28;20077;-81
2022/10/31 08:59:58;;;;;;;;;;;19.20;99.90;;;;;;5024012;28;19917;-81
2022/10/31 09:02:23;;;;;;;;;;;20.00;99.90;;;;;;5036140;28;20477;-81
2022/10/31 09:04:49;;;;;;;;;;;21.50;99.90;;;;;;5039348;28;19917;-79
2022/10/31 09:07:14;;;;;;;;;;;22.00;99.90;;;;;;5035884;28;19917;-79
2022/10/31 09:09:40;;;;;;;;;;;21.60;99.90;;;;;;5038403;28;19974;-79
2022/10/31 09:12:05;;;;;;;;;;;20.80;99.90;;;;;;5041733;28;20011;-79
2022/10/31 09:14:31;;;;;;;;;;;20.10;99.90;;;;;;5023571;28;20399;-78
2022/10/31 09:16:56;;;;;;;;;;;19.50;99.90;;;;;;5014680;28;19916;-78
2022/10/31 09:19:22;;;;;;;;;;;19.00;99.90;;;;;;5027869;28;20316;-77
2022/10/31 09:21:47;;;;;;;;;;;19.00;99.90;;;;;;5021340;28;20422;-78
2022/10/31 09:24:13;;;;;;;;;;;19.00;99.90;;;;;;5038034;28;19954;-78
2022/10/31 09:26:38;;;;;;;;;;;19.10;99.90;;;;;;5037913;28;19928;-76
2022/10/31 09:29:04;;;;;;;;;;;19.40;99.90;;;;;;5039299;28;20414;-77
2022/10/31 09:31:29;;;;;;;;;;;19.20;99.90;;;;;;5025026;28;20275;-76
2022/10/31 09:33:55;;;;;;;;;;;19.70;99.90;;;;;;5040947;28;19951;-78
2022/10/31 09:36:20;;;;;;;;;;;21.80;99.90;;;;;;5035973;28;19970;-77
2022/10/31 09:38:46;;;;;;;;;;;24.20;99.90;;;;;;5003227;28;19913;-77
2022/10/31 09:41:11;;;;;;;;;;;25.40;98.20;;;;;;5030916;28;19960;-78
2022/10/31 09:43:43;;;;;;;;;;;26.90;94.80;;;;;;5025292;28;19913;-79
2022/10/31 09:46:14;;;;;;;;;;;27.40;91.90;;;;;;5043035;28;19933;-78
2022/10/31 09:48:40;;;;;;;;;;;27.10;90.50;;;;;;5042883;28;19935;-78
2022/10/31 09:51:10;;;;;;;;;;;26.40;91.60;;;;;;5041266;28;20391;-78
2022/10/31 09:53:36;;;;;;;;;;;25.30;93.00;;;;;;5013347;28;19999;-78
2022/10/31 09:56:04;;;;;;;;;;;24.10;93.90;;;;;;5022795;28;20299;-80
2022/10/31 09:58:31;;;;;;;;;;;22.60;95.80;;;;;;5021166;28;20012;-79
2022/10/31 10:00:58;;;;;;;;;;;21.10;98.20;;;;;;5020733;28;20177;-77
2022/10/31 10:03:31;;;;;;;;;;;19.80;99.90;;;;;;5023359;28;19913;-76
2022/10/31 10:06:01;;;;;;;;;;;20.40;99.90;;;;;;5041757;28;19931;-76
2022/10/31 10:08:30;;;;;;;;;;;21.80;99.60;;;;;;5024415;28;19912;-79
2022/10/31 10:10:55;;;;;;;;;;;22.50;98.10;;;;;;5042303;28;19944;-78
2022/10/31 10:13:30;;;;;;;;;;;23.20;97.00;;;;;;5042060;28;20410;-78
2022/10/31 10:16:10;;;;;;;;;;;24.00;95.40;;;;;;5042303;28;20015;-78
2022/10/31 10:18:41;;;;;;;;;;;25.60;93.70;;;;;;5014055;28;20253;-78
2022/10/31 10:21:19;;;;;;;;;;;26.70;92.00;;;;;;5022726;28;19972;-77
2022/10/31 10:23:44;;;;;;;;;;;27.10;90.20;;;;;;5036224;28;19928;-79
2022/10/31 10:26:15;;;;;;;;;;;27.10;90.30;;;;;;5042174;28;19921;-78
2022/10/31 10:28:43;;;;;;;;;;;27.10;88.20;;;;;;5040486;28;20344;-80
2022/10/31 10:31:16;;;;;;;;;;;27.00;87.50;;;;;;5039890;28;19921;-78
2022/10/31 10:33:44;;;;;;;;;;;26.70;87.30;;;;;;5042411;28;20287;-77
2022/10/31 10:36:28;;;;;;;;;;;26.00;89.30;;;;;;5042557;28;19920;-81
2022/10/31 10:38:56;;;;;;;;;;;25.70;91.10;;;;;;5026192;28;19971;-78
2022/10/31 10:41:23;;;;;;;;;;;24.80;91.30;;;;;;5034278;28;19913;-79
2022/10/31 10:43:49;;;;;;;;;;;23.80;91.30;;;;;;5029186;28;19943;-80
2022/10/31 10:49:23;;;;;;;;;;;21.30;95.90;;;;;;5023378;28;19919;-80
2022/10/31 10:51:51;;;;;;;;;;;21.30;96.30;;;;;;5021266;28;19925;-78
2022/10/31 10:54:36;;;;;;;;;;;21.10;96.40;;;;;;5023606;28;20384;-79
2022/10/31 10:57:04;;;;;;;;;;;21.00;97.50;;;;;;5023486;28;20011;-79
2022/10/31 10:59:30;;;;;;;;;;;21.40;98.30;;;;;;5025421;28;20113;-78
2022/10/31 11:01:56;;;;;;;;;;;21.80;96.20;;;;;;5024646;28;19948;-79
2022/10/31 11:04:29;;;;;;;;;;;21.40;96.60;;;;;;5043199;28;19963;-78
2022/10/31 11:07:06;;;;;;;;;;;20.70;96.90;;;;;;5041646;28;19924;-79
2022/10/31 11:09:32;;;;;;;;;;;19.80;99.40;;;;;;5024289;28;20010;-78
2022/10/31 11:11:58;;;;;;;;;;;19.30;99.90;;;;;;5042752;28;19913;-78
2022/10/31 11:14:24;;;;;;;;;;;19.40;99.90;;;;;;5044791;28;20324;-77
2022/10/31 11:16:53;;;;;;;;;;;19.30;99.90;;;;;;5046118;28;19935;-78
2022/10/31 11:19:20;;;;;;;;;;;19.50;99.90;;;;;;5023787;28;19964;-79
2022/10/31 11:21:46;;;;;;;;;;;19.40;99.90;;;;;;5027619;28;19921;-79
2022/10/31 11:24:27;;;;;;;;;;;19.10;99.90;;;;;;5027771;28;19936;-78
2022/10/31 11:27:09;;;;;;;;;;;19.10;99.90;;;;;;5026976;28;19924;-81
2022/10/31 11:29:36;;;;;;;;;;;18.90;99.90;;;;;;5045051;28;19948;-79
2022/10/31 11:32:02;;;;;;;;;;;18.90;99.90;;;;;;5039507;28;20103;-80
2022/10/31 11:34:31;;;;;;;;;;;19.10;99.90;;;;;;5045636;28;20011;-81
2022/10/31 11:37:02;;;;;;;;;;;19.30;99.90;;;;;;5026663;28;19920;-80
2022/10/31 11:39:28;;;;;;;;;;;19.40;99.90;;;;;;5027032;28;19923;-80
2022/10/31 11:41:54;;;;;;;;;;;19.60;99.90;;;;;;5044846;28;20353;-81
2022/10/31 11:44:21;;;;;;;;;;;19.70;99.90;;;;;;5044869;28;19919;-79
2022/10/31 11:46:48;;;;;;;;;;;19.80;99.90;;;;;;5027055;28;20012;-78
2022/10/31 11:49:16;;;;;;;;;;;19.60;99.90;;;;;;5044624;28;19957;-79
2022/10/31 11:51:42;;;;;;;;;;;19.40;99.90;;;;;;5026591;28;19990;-76
2022/10/31 11:54:20;;;;;;;;;;;19.30;99.90;;;;;;5044759;28;19928;-77
2022/10/31 11:56:45;;;;;;;;;;;19.10;99.90;;;;;;5041441;28;20016;-78
2022/10/31 11:59:25;;;;;;;;;;;19.00;99.90;;;;;;5045259;28;19943;-80
2022/10/31 12:01:52;;;;;;;;;;;18.90;99.90;;;;;;5026845;28;19909;-78
2022/10/31 12:04:18;;;;;;;;;;;18.80;99.90;;;;;;5024245;28;19921;-78
2022/10/31 12:06:47;;;;;;;;;;;19.10;99.90;;;;;;5038050;28;19925;-78
2022/10/31 12:09:18;;;;;;;;;;;19.50;99.90;;;;;;5044746;28;19971;-79
2022/10/31 12:11:52;;;;;;;;;;;20.00;99.90;;;;;;5045034;28;19921;-78
2022/10/31 12:14:20;;;;;;;;;;;20.40;99.90;;;;;;5044898;28;19924;-78
2022/10/31 12:16:50;;;;;;;;;;;20.70;99.90;;;;;;5045200;28;20368;-78
2022/10/31 12:19:23;;;;;;;;;;;20.80;99.90;;;;;;5027280;28;20370;-77
2022/10/31 12:21:57;;;;;;;;;;;20.90;99.90;;;;;;5044597;28;19962;-78
2022/10/31 12:24:23;;;;;;;;;;;20.80;99.90;;;;;;5044596;28;19917;-80
2022/10/31 12:27:11;;;;;;;;;;;20.50;99.90;;;;;;5025742;28;19921;-81
2022/10/31 12:29:40;;;;;;;;;;;20.00;99.90;;;;;;4999971;28;19921;-80
2022/10/31 12:32:11;;;;;;;;;;;19.60;99.90;;;;;;5028029;28;20000;-79
2022/10/31 12:34:48;;;;;;;;;;;19.20;99.90;;;;;;5045466;28;20368;-81
2022/10/31 12:37:31;;;;;;;;;;;18.90;99.90;;;;;;5023253;28;20016;-79
2022/10/31 12:40:00;;;;;;;;;;;18.70;99.90;;;;;;5032734;28;19912;-79
2022/10/31 12:42:38;;;;;;;;;;;18.70;99.90;;;;;;5026546;28;19936;-78
2022/10/31 12:45:10;;;;;;;;;;;18.60;99.90;;;;;;5016932;28;20304;-81
2022/10/31 12:47:38;;;;;;;;;;;18.50;99.90;;;;;;5037359;28;19917;-79
2022/10/31 12:50:22;;;;;;;;;;;18.40;99.90;;;;;;5023441;28;19933;-81
2022/10/31 12:52:47;;;;;;;;;;;18.30;99.90;;;;;;5031766;28;20638;-79
2022/10/31 12:55:31;;;;;;;;;;;18.30;99.90;;;;;;5023475;28;19968;-81
2022/10/31 12:58:00;;;;;;;;;;;18.30;99.90;;;;;;5024969;28;20007;-75
2022/10/31 13:00:26;;;;;;;;;;;18.40;99.90;;;;;;5022243;28;19917;-83
2022/10/31 13:03:09;;;;;;;;;;;18.50;99.90;;;;;;5024044;28;19916;-80
2022/10/31 13:05:40;;;;;;;;;;;18.40;99.90;;;;;;5018771;28;19925;-78
2022/10/31 13:08:07;;;;;;;;;;;18.30;99.90;;;;;;5040766;28;19917;-78
2022/10/31 13:10:42;;;;;;;;;;;18.20;99.90;;;;;;5045637;28;20039;-81
2022/10/31 13:13:31;;;;;;;;;;;18.00;99.90;;;;;;5040091;28;19943;-82
2022/10/31 13:15:58;;;;;;;;;;;17.80;99.90;;;;;;5026134;28;19917;-83
2022/10/31 13:18:29;;;;;;;;;;;17.70;99.90;;;;;;5036913;28;19931;-83
2022/10/31 13:20:57;;;;;;;;;;;17.50;99.90;;;;;;5023462;28;19913;-83
2022/10/31 13:23:33;;;;;;;;;;;17.50;99.90;;;;;;5044613;28;20019;-79
2022/10/31 13:26:01;;;;;;;;;;;17.40;99.90;;;;;;5028386;28;19924;-80
2022/10/31 13:28:47;;;;;;;;;;;17.40;99.90;;;;;;5041689;28;19923;-81
2022/10/31 13:31:13;;;;;;;;;;;17.40;99.90;;;;;;5043529;28;20512;-78
2022/10/31 13:33:44;;;;;;;;;;;17.30;99.90;;;;;;5032824;28;19916;-77
2022/10/31 13:36:29;;;;;;;;;;;17.20;99.90;;;;;;5020556;28;20051;-75
2022/10/31 13:39:09;;;;;;;;;;;17.10;99.90;;;;;;5031226;28;20024;-76
2022/10/31 13:41:50;;;;;;;;;;;17.00;99.90;;;;;;5031585;28;19917;-75
2022/10/31 13:44:19;;;;;;;;;;;16.90;99.90;;;;;;5011152;28;19940;-74
2022/10/31 13:46:45;;;;;;;;;;;16.90;99.90;;;;;;5032617;28;20426;-74
2022/10/31 13:49:23;;;;;;;;;;;16.80;99.90;;;;;;5038063;28;19917;-75
2022/10/31 13:51:48;;;;;;;;;;;16.90;99.90;;;;;;5022759;28;20422;-75
2022/10/31 13:54:31;;;;;;;;;;;16.90;99.90;;;;;;5039613;28;20540;-78
2022/10/31 13:56:56;;;;;;;;;;;17.00;99.90;;;;;;5020037;28;19917;-79
2022/10/31 13:59:23;;;;;;;;;;;17.10;99.90;;;;;;5041852;28;19920;-77
2022/10/31 14:01:53;;;;;;;;;;;17.00;99.90;;;;;;5040663;28;20333;-77
2022/10/31 14:04:24;;;;;;;;;;;17.00;99.90;;;;;;5037178;28;20402;-77
2022/10/31 14:06:57;;;;;;;;;;;16.90;99.90;;;;;;5022107;28;19925;-78
2022/10/31 14:09:25;;;;;;;;;;;16.90;99.90;;;;;;5031586;28;19962;-75
2022/10/31 14:11:51;;;;;;;;;;;16.90;99.90;;;;;;5042190;28;20265;-76
2022/10/31 14:14:17;;;;;;;;;;;16.90;99.90;;;;;;5042393;28;20782;-74
2022/10/31 14:16:44;;;;;;;;;;;16.90;99.90;;;;;;5023238;28;20265;-74
2022/10/31 14:19:17;;;;;;;;;;;16.90;99.90;;;;;;5034026;28;19978;-74
2022/10/31 14:21:44;;;;;;;;;;;16.90;99.90;;;;;;5028130;28;20030;-74
2022/10/31 14:24:15;;;;;;;;;;;16.80;99.90;;;;;;5040670;28;19970;-75